createdAt,value
2023-07-25T00:00:17.365Z,57.98
2023-07-25T00:05:20.471Z,58.47
2023-07-25T00:10:23.223Z,58.35
2023-07-25T00:15:27.871Z,58.18
2023-07-25T00:20:30.709Z,58.58
2023-07-25T00:25:33.600Z,58.18
2023-07-25T00:30:37.841Z,58.34
2023-07-25T00:35:40.655Z,58.24
2023-07-25T00:40:43.402Z,58.45
2023-07-25T00:45:47.735Z,58.58
2023-07-25T00:50:50.888Z,58.54
2023-07-25T00:55:53.892Z,58.51
2023-07-25T01:01:07.723Z,58.87
2023-07-25T01:06:14.762Z,58.99
2023-07-25T01:11:17.635Z,58.96
2023-07-25T01:16:24.578Z,59.17
2023-07-25T01:21:27.614Z,59.22
2023-07-25T01:26:31.803Z,59.27
2023-07-25T01:31:34.863Z,58.93
2023-07-25T01:36:37.646Z,59.27
2023-07-25T01:41:42.967Z,59.17
2023-07-25T01:46:45.849Z,59.34
2023-07-25T01:51:48.875Z,59.02
2023-07-25T01:56:53.108Z,59.11
2023-07-25T02:01:55.979Z,59.58
2023-07-25T02:06:58.823Z,59.63
2023-07-25T02:12:03.408Z,59.81
2023-07-25T02:17:07.478Z,59.70
2023-07-25T02:22:10.345Z,59.79
2023-07-25T02:27:14.503Z,59.66
2023-07-25T02:32:17.345Z,60.14
2023-07-25T02:37:20.194Z,60.01
2023-07-25T02:42:24.363Z,60.00
2023-07-25T02:47:27.556Z,59.68
2023-07-25T02:52:30.423Z,59.77
2023-07-25T02:57:34.850Z,59.64
2023-07-25T03:02:37.803Z,59.67
2023-07-25T03:07:40.702Z,59.96
2023-07-25T03:12:45.088Z,59.89
2023-07-25T03:17:48.231Z,59.88
2023-07-25T03:22:51.110Z,60.02
2023-07-25T03:27:55.328Z,59.53
2023-07-25T03:32:58.116Z,59.58
2023-07-25T03:38:00.959Z,58.15
2023-07-25T03:43:05.275Z,62.13
2023-07-25T03:48:08.163Z,62.06
2023-07-25T03:53:11.024Z,62.61
2023-07-25T03:58:15.207Z,62.57
2023-07-25T04:03:18.082Z,63.17
2023-07-25T04:08:20.933Z,61.60
2023-07-25T04:13:25.161Z,61.35
2023-07-25T04:18:28.103Z,60.69
2023-07-25T04:23:30.912Z,60.66
2023-07-25T04:28:35.307Z,60.94
2023-07-25T04:33:38.109Z,61.45
2023-07-25T04:38:41.515Z,61.61
2023-07-25T04:43:45.700Z,61.96
2023-07-25T04:48:48.570Z,62.57
2023-07-25T04:53:52.324Z,62.35
2023-07-25T04:58:56.518Z,63.31
2023-07-25T05:03:59.689Z,63.03
2023-07-25T05:09:02.730Z,63.39
2023-07-25T05:14:07.375Z,64.79
2023-07-25T05:19:10.956Z,65.16
2023-07-25T05:24:13.981Z,65.67
2023-07-25T05:29:18.793Z,64.94
2023-07-25T05:34:21.706Z,64.21
2023-07-25T05:39:24.899Z,64.76
2023-07-25T05:44:29.124Z,64.93
2023-07-25T05:49:32.005Z,64.42
2023-07-25T05:54:34.797Z,64.25
2023-07-25T05:59:39.289Z,64.89
2023-07-25T06:04:44.162Z,65.12
2023-07-25T06:09:48.662Z,63.59
2023-07-25T06:14:55.366Z,63.67
2023-07-25T06:20:00.422Z,63.64
2023-07-25T06:25:07.577Z,62.79
2023-07-25T06:30:18.954Z,61.85
2023-07-25T06:35:28.316Z,62.08
2023-07-25T06:40:33.704Z,62.53
2023-07-25T06:45:39.417Z,62.36
2023-07-25T06:50:45.010Z,62.29
2023-07-25T06:55:50.180Z,62.07
2023-07-25T07:01:01.330Z,61.68
2023-07-25T07:06:06.978Z,61.71
2023-07-25T07:11:12.470Z,61.57
2023-07-25T07:16:18.281Z,61.33
2023-07-25T07:21:29.177Z,62.31
2023-07-25T07:26:38.885Z,62.56
2023-07-25T07:31:43.250Z,62.51
2023-07-25T07:36:47.748Z,62.21
2023-07-25T07:41:52.184Z,62.07
2023-07-25T07:46:59.604Z,62.17
2023-07-25T07:57:13.139Z,62.34
2023-07-25T08:02:17.835Z,63.09
2023-07-25T08:07:21.071Z,61.94
2023-07-25T08:12:24.606Z,61.10
2023-07-25T08:17:28.964Z,60.34
2023-07-25T08:22:31.939Z,59.91
2023-07-25T08:27:34.918Z,59.92
2023-07-25T08:32:40.166Z,59.73
2023-07-25T08:37:43.283Z,59.94
2023-07-25T08:42:48.775Z,59.56
2023-07-25T08:47:55.127Z,59.55
2023-07-25T08:53:02.337Z,58.91
2023-07-25T08:58:06.187Z,59.56
2023-07-25T09:03:11.125Z,59.75
2023-07-25T09:08:14.763Z,58.79
2023-07-25T09:13:21.819Z,58.86
2023-07-25T09:18:27.121Z,58.55
2023-07-25T09:23:30.744Z,58.31
2023-07-25T09:28:34.465Z,58.66
2023-07-25T09:33:40.208Z,58.69
2023-07-25T09:38:51.028Z,59.24
2023-07-25T09:43:54.772Z,58.59
2023-07-25T09:49:00.691Z,58.17
2023-07-25T09:54:07.591Z,57.75
2023-07-25T09:59:11.674Z,58.98
2023-07-25T10:04:18.774Z,58.82
2023-07-25T10:09:22.276Z,59.39
2023-07-25T10:14:26.041Z,58.89
2023-07-25T10:19:45.640Z,60.57
2023-07-25T10:24:49.423Z,60.48
2023-07-25T10:29:52.468Z,60.01
2023-07-25T10:35:05.393Z,60.07
2023-07-25T10:40:18.271Z,59.09
2023-07-25T10:45:42.761Z,59.46
2023-07-25T10:50:54.416Z,59.77
2023-07-25T10:56:19.823Z,60.08
2023-07-25T11:01:41.436Z,59.13
2023-07-25T11:06:48.047Z,58.03
2023-07-25T11:11:52.953Z,57.49
2023-07-25T11:16:56.423Z,57.84
2023-07-25T11:22:01.498Z,59.06
2023-07-25T11:27:05.080Z,59.66
2023-07-25T11:32:10.925Z,61.08
2023-07-25T11:37:15.773Z,60.98
2023-07-25T11:42:19.120Z,60.88
2023-07-25T11:47:22.688Z,61.79
2023-07-25T11:52:27.837Z,60.99
2023-07-25T11:57:31.448Z,59.64
2023-07-25T12:02:38.369Z,59.69
2023-07-25T12:07:53.720Z,61.64
2023-07-25T12:12:57.100Z,61.01
2023-07-25T12:18:04.112Z,61.23
2023-07-25T12:23:11.552Z,61.83
2023-07-25T12:28:14.873Z,62.33
2023-07-25T12:33:17.807Z,64.37
2023-07-25T12:38:22.356Z,63.43
2023-07-25T12:43:25.826Z,63.58
2023-07-25T12:48:28.843Z,66.37
2023-07-25T12:53:33.392Z,66.34
2023-07-25T12:58:36.757Z,66.60
2023-07-25T13:03:41.886Z,66.50
2023-07-25T13:08:47.438Z,66.17
2023-07-25T13:13:50.384Z,66.80
2023-07-25T13:18:53.289Z,66.00
2023-07-25T13:23:57.623Z,66.80
2023-07-25T13:29:00.916Z,64.99
2023-07-25T13:34:04.087Z,65.36
2023-07-25T13:39:09.041Z,66.32
2023-07-25T13:44:11.984Z,66.05
2023-07-25T13:49:15.088Z,66.23
2023-07-25T13:54:20.218Z,65.60
2023-07-25T13:59:23.233Z,65.52
2023-07-25T14:04:26.086Z,66.39
2023-07-25T14:09:30.366Z,65.77
2023-07-25T14:14:37.272Z,64.31
2023-07-25T14:19:40.470Z,65.32
2023-07-25T14:24:44.940Z,62.67
2023-07-25T14:29:48.212Z,65.19
2023-07-25T14:34:51.926Z,64.56
2023-07-25T14:39:56.133Z,65.83
2023-07-25T14:44:59.336Z,67.19
2023-07-25T14:50:02.327Z,65.71
2023-07-25T14:55:08.003Z,65.40
2023-07-25T15:00:16.856Z,65.92
2023-07-25T15:05:21.276Z,66.08
2023-07-25T15:10:25.878Z,65.79
2023-07-25T15:15:28.897Z,63.66
2023-07-25T15:20:31.833Z,63.79
2023-07-25T15:25:36.418Z,64.55
2023-07-25T15:30:39.336Z,65.43
2023-07-25T15:35:42.257Z,64.38
2023-07-25T15:40:46.635Z,63.78
2023-07-25T15:45:50.374Z,63.33
2023-07-25T15:50:53.152Z,62.90
2023-07-25T15:55:58.311Z,62.50
2023-07-25T16:01:02.372Z,62.38
2023-07-25T16:06:05.368Z,62.54
2023-07-25T16:11:09.771Z,61.82
2023-07-25T16:16:13.465Z,61.67
2023-07-25T16:21:17.060Z,61.71
2023-07-25T16:26:21.725Z,61.51
2023-07-25T16:31:32.470Z,61.40
2023-07-25T16:36:36.756Z,60.86
2023-07-25T16:41:41.303Z,60.66
2023-07-25T16:46:46.621Z,60.37
2023-07-25T16:51:53.160Z,60.09
2023-07-25T16:56:57.873Z,59.97
2023-07-25T17:02:00.893Z,60.00
2023-07-25T17:07:03.973Z,59.54
2023-07-25T17:12:08.826Z,59.45
2023-07-25T17:17:13.718Z,59.22
2023-07-25T17:22:17.089Z,58.85
2023-07-25T17:27:21.391Z,58.92
2023-07-25T17:32:27.017Z,58.77
2023-07-25T17:37:30.243Z,58.85
2023-07-25T17:42:34.652Z,58.79
2023-07-25T17:47:38.106Z,58.66
2023-07-25T17:52:41.240Z,58.70
2023-07-25T17:57:45.590Z,58.47
2023-07-25T18:02:48.583Z,58.40
2023-07-25T18:07:51.544Z,58.31
2023-07-25T18:12:55.732Z,57.98
2023-07-25T18:17:58.734Z,57.79
2023-07-25T18:23:02.168Z,57.67
2023-07-25T18:28:07.255Z,57.49
2023-07-25T18:33:10.544Z,57.37
2023-07-25T18:38:16.239Z,57.07
2023-07-25T18:43:26.141Z,56.99
2023-07-25T18:48:29.380Z,57.06
2023-07-25T18:53:32.611Z,56.72
2023-07-25T18:58:37.086Z,56.54
2023-07-25T19:03:39.988Z,56.58
2023-07-25T19:08:43.280Z,56.54
2023-07-25T19:13:47.677Z,56.46
2023-07-25T19:18:50.613Z,56.30
2023-07-25T19:23:53.533Z,56.37
2023-07-25T19:29:01.092Z,56.42
2023-07-25T19:34:05.682Z,55.89
2023-07-25T19:39:08.776Z,55.88
2023-07-25T19:44:14.664Z,55.67
2023-07-25T19:49:17.452Z,55.84
2023-07-25T19:54:20.413Z,55.66
2023-07-25T19:59:24.675Z,55.82
2023-07-25T20:04:27.590Z,55.61
2023-07-25T20:09:30.486Z,55.83
2023-07-25T20:14:35.041Z,55.63
2023-07-25T20:19:37.932Z,55.60
2023-07-25T20:24:41.743Z,55.75
2023-07-25T20:29:46.262Z,55.67
2023-07-25T20:34:49.436Z,55.58
2023-07-25T20:39:52.751Z,55.83
2023-07-25T20:44:57.111Z,55.90
2023-07-25T20:50:00.192Z,55.63
2023-07-25T20:55:03.752Z,55.77
2023-07-25T21:00:11.353Z,55.60
2023-07-25T21:05:15.380Z,55.76
2023-07-25T21:10:18.555Z,55.83
2023-07-25T21:15:22.843Z,55.80
2023-07-25T21:20:25.655Z,55.58
2023-07-25T21:25:28.571Z,55.02
2023-07-25T21:30:32.985Z,55.03
2023-07-25T21:35:36.504Z,54.85
2023-07-25T21:40:39.549Z,54.94
2023-07-25T21:45:44.454Z,54.44
2023-07-25T21:50:49.746Z,54.68
2023-07-25T21:55:52.636Z,54.70
2023-07-25T22:00:59.818Z,54.45
2023-07-25T22:06:03.685Z,54.01
2023-07-25T22:11:06.683Z,53.95
2023-07-25T22:16:10.926Z,54.21
2023-07-25T22:21:13.837Z,53.94
2023-07-25T22:26:16.690Z,54.20
2023-07-25T22:31:20.914Z,54.40
2023-07-25T22:36:23.993Z,54.15
2023-07-25T22:41:26.922Z,54.19
2023-07-25T22:46:31.548Z,54.12
2023-07-25T22:51:34.507Z,54.06
2023-07-25T22:56:37.431Z,54.28
2023-07-25T23:01:41.991Z,54.34
2023-07-25T23:06:44.845Z,54.68
2023-07-25T23:11:47.946Z,54.86
2023-07-25T23:16:52.202Z,55.06
2023-07-25T23:21:55.045Z,54.85
2023-07-25T23:26:57.871Z,55.03
2023-07-25T23:32:02.144Z,55.11
2023-07-25T23:37:05.289Z,54.97
2023-07-25T23:42:08.801Z,55.10
2023-07-25T23:47:13.544Z,55.35
2023-07-25T23:52:16.308Z,55.09
2023-07-25T23:57:19.081Z,55.13
